Time;durP1;ratioP1;P1;durP2;ratioP2;P2;SDS_P1;SDS_P2;PMS_P1;PMS_P2;Temp;Humidity;BMP_temperature;BMP_pressure;BME280_temperature;BME280_humidity;BME280_pressure;Samples;Min_cycle;Max_cycle;Signal;HPM_P1;HPM_P2
2021/09/07 00:01:07;;;;;;;1.38;0.85;;;;;;;19.27;60.17;102162.75;5055425;28;20028;-63
2021/09/07 00:03:32;;;;;;;2.38;0.70;;;;;;;19.22;55.97;102156.88;5055515;28;20091;-63
2021/09/07 00:05:58;;;;;;;2.95;1.23;;;;;;;19.26;61.73;102161.03;5055015;28;20465;-62
2021/09/07 00:08:24;;;;;;;1.70;0.68;;;;;;;19.25;59.95;102156.59;5055424;28;20025;-63
2021/09/07 00:10:49;;;;;;;4.72;1.20;;;;;;;19.24;61.83;102163.03;5055223;28;20047;-63
2021/09/07 00:13:15;;;;;;;2.45;0.68;;;;;;;19.26;63.64;102163.75;5055241;28;20032;-62
2021/09/07 00:15:40;;;;;;;3.70;0.73;;;;;;;19.22;59.64;102162.34;5055309;28;20036;-63
2021/09/07 00:18:05;;;;;;;0.93;0.50;;;;;;;19.24;61.31;102161.19;5075076;28;20017;-63
2021/09/07 00:20:31;;;;;;;1.30;0.60;;;;;;;19.18;58.47;102169.94;5064041;28;20033;-63
2021/09/07 00:22:56;;;;;;;2.00;0.90;;;;;;;19.20;58.76;102161.63;5055053;28;20470;-63
2021/09/07 00:25:22;;;;;;;2.72;0.95;;;;;;;19.20;59.95;102164.34;5054659;28;20016;-62
2021/09/07 00:27:47;;;;;;;4.57;0.60;;;;;;;19.17;54.18;102153.75;5054969;28;20033;-62
2021/09/07 00:30:13;;;;;;;2.90;0.52;;;;;;;19.16;58.28;102146.56;5054677;28;20021;-63
2021/09/07 00:32:38;;;;;;;0.95;0.55;;;;;;;19.16;60.25;102147.44;5053847;28;20105;-62
2021/09/07 00:35:04;;;;;;;2.13;0.82;;;;;;;19.17;58.34;102153.75;5054590;28;20515;-62
2021/09/07 00:37:29;;;;;;;1.83;0.82;;;;;;;19.17;59.05;102151.00;5054825;28;20025;-63
2021/09/07 00:39:54;;;;;;;1.77;1.05;;;;;;;19.14;55.98;102148.56;5054688;28;20520;-62
2021/09/07 00:42:20;;;;;;;2.33;0.90;;;;;;;19.13;58.54;102153.16;5054653;28;20035;-63
2021/09/07 00:44:45;;;;;;;3.03;1.02;;;;;;;19.15;61.92;102144.84;5054514;28;20067;-63
2021/09/07 00:47:11;;;;;;;3.17;0.88;;;;;;;19.16;61.54;102149.28;5054623;28;20082;-62
2021/09/07 00:49:36;;;;;;;3.53;1.15;;;;;;;19.11;61.19;102149.72;5054274;28;20021;-63
2021/09/07 00:52:04;;;;;;;1.40;0.60;;;;;;;19.09;60.74;102142.69;5054383;28;20056;-63
2021/09/07 00:54:32;;;;;;;4.40;1.15;;;;;;;19.11;62.54;102154.31;5036783;28;20408;-62
2021/09/07 00:56:58;;;;;;;2.95;0.50;;;;;;;19.07;58.54;102147.44;5036138;28;20078;-63
2021/09/07 00:59:24;;;;;;;2.60;0.75;;;;;;;19.10;61.43;102147.13;5054142;28;20029;-62
2021/09/07 01:01:50;;;;;;;2.53;0.63;;;;;;;19.10;59.62;102148.00;5054404;28;20064;-63
2021/09/07 01:04:17;;;;;;;8.02;1.77;;;;;;;19.08;58.13;102149.16;5054332;28;20021;-63
2021/09/07 01:06:42;;;;;;;3.60;0.73;;;;;;;19.11;60.55;102146.13;5054197;28;20021;-64
2021/09/07 01:09:08;;;;;;;4.30;1.13;;;;;;;19.08;57.78;102143.69;5054018;28;20029;-65
2021/09/07 01:11:34;;;;;;;2.83;1.10;;;;;;;19.09;63.12;102145.41;5053904;28;20074;-63
2021/09/07 01:14:00;;;;;;;1.05;0.52;;;;;;;19.06;57.41;102140.25;5054086;28;20028;-63
2021/09/07 01:16:25;;;;;;;1.60;0.63;;;;;;;19.05;59.40;102133.94;5054099;28;20025;-63
2021/09/07 01:18:51;;;;;;;3.90;1.35;;;;;;;19.05;58.03;102133.09;5054152;28;20029;-62
2021/09/07 01:21:17;;;;;;;4.10;1.13;;;;;;;19.08;62.45;102138.25;5053878;28;20021;-63
2021/09/07 01:23:46;;;;;;;1.33;0.52;;;;;;;19.05;60.34;102130.34;5053886;28;20039;-62
2021/09/07 01:26:16;;;;;;;3.75;1.02;;;;;;;19.02;57.89;102128.78;5053829;28;20028;-62
2021/09/07 01:28:42;;;;;;;2.95;1.10;;;;;;;19.02;58.43;102130.66;5053911;28;20163;-63
2021/09/07 01:31:10;;;;;;;2.65;1.02;;;;;;;19.04;62.06;102131.38;5053562;28;20032;-62
2021/09/07 01:33:35;;;;;;;3.28;1.10;;;;;;;19.01;58.33;102137.13;5053685;28;20070;-63
2021/09/07 01:36:01;;;;;;;2.08;1.00;;;;;;;19.04;57.90;102139.53;5053520;28;20029;-63
2021/09/07 01:38:29;;;;;;;2.30;1.15;;;;;;;19.03;61.67;102135.09;5053840;28;20083;-62
2021/09/07 01:40:55;;;;;;;3.63;0.93;;;;;;;19.01;60.86;102142.56;5053379;28;20480;-63
2021/09/07 01:43:20;;;;;;;0.77;0.60;;;;;;;19.00;58.30;102135.41;5053060;28;20393;-63
2021/09/07 01:45:47;;;;;;;1.45;0.60;;;;;;;19.00;61.38;102146.28;5053422;28;20020;-62
2021/09/07 01:48:14;;;;;;;0.82;0.57;;;;;;;19.00;59.03;102140.84;5053471;28;20029;-63
2021/09/07 01:50:39;;;;;;;2.17;0.80;;;;;;;19.00;60.59;102138.13;5053543;28;20028;-63
2021/09/07 01:53:05;;;;;;;1.33;0.60;;;;;;;19.02;59.43;102147.00;5053009;28;20477;-62
2021/09/07 01:55:30;;;;;;;2.60;0.90;;;;;;;18.97;60.17;102132.94;5053612;28;20035;-63
2021/09/07 01:57:55;;;;;;;2.90;0.82;;;;;;;18.99;59.47;102134.53;5053184;28;20043;-63
2021/09/07 02:00:21;;;;;;;2.38;0.88;;;;;;;18.96;58.33;102129.34;5052940;28;20029;-63
2021/09/07 02:02:46;;;;;;;2.50;0.95;;;;;;;18.94;61.28;102129.50;5053396;28;20027;-63
2021/09/07 02:05:11;;;;;;;0.75;0.40;;;;;;;18.94;59.83;102123.19;5053046;28;20029;-62
2021/09/07 02:07:37;;;;;;;3.15;1.10;;;;;;;18.98;60.22;102115.56;5035192;28;20029;-63
2021/09/07 02:10:03;;;;;;;1.48;0.68;;;;;;;18.92;61.99;102096.06;5052756;28;20021;-63
2021/09/07 02:12:28;;;;;;;1.83;0.63;;;;;;;18.91;59.89;102105.25;5035332;28;20025;-65
2021/09/07 02:14:54;;;;;;;1.80;1.05;;;;;;;18.89;56.60;102103.69;5035253;28;20102;-65
2021/09/07 02:17:19;;;;;;;2.50;0.70;;;;;;;18.97;62.36;102105.69;5053005;28;20078;-65
2021/09/07 02:19:45;;;;;;;2.38;0.98;;;;;;;18.91;60.64;102099.81;5035236;28;20025;-62
2021/09/07 02:22:10;;;;;;;1.08;0.93;;;;;;;18.87;61.63;102095.66;5060200;28;20051;-65
2021/09/07 02:24:36;;;;;;;1.92;0.82;;;;;;;18.92;58.59;102098.81;5074469;28;20040;-63
2021/09/07 02:27:02;;;;;;;2.47;0.70;;;;;;;18.90;59.35;102097.22;5053220;28;20027;-61
2021/09/07 02:29:27;;;;;;;3.25;0.82;;;;;;;18.87;58.72;102087.50;5052863;28;20024;-66
2021/09/07 02:31:52;;;;;;;1.23;0.68;;;;;;;18.89;56.42;102090.94;5052623;28;20025;-62
2021/09/07 02:34:18;;;;;;;3.70;0.82;;;;;;;18.88;61.27;102097.38;5052796;28;20025;-63
2021/09/07 02:36:43;;;;;;;3.53;0.68;;;;;;;18.89;60.60;102096.38;5053000;28;20082;-64
2021/09/07 02:39:08;;;;;;;2.20;0.80;;;;;;;18.86;57.06;102102.13;5052515;28;20523;-62
2021/09/07 02:41:34;;;;;;;2.45;0.60;;;;;;;18.88;57.34;102105.56;5052606;28;20017;-63
2021/09/07 02:43:59;;;;;;;4.47;1.35;;;;;;;18.89;62.52;102099.09;5052557;28;20041;-63
2021/09/07 02:46:25;;;;;;;4.57;1.27;;;;;;;18.86;56.71;102101.25;5052692;28;20029;-62
2021/09/07 02:48:51;;;;;;;2.95;0.70;;;;;;;18.82;56.37;102095.25;5052755;28;20048;-63
2021/09/07 02:51:17;;;;;;;2.25;0.73;;;;;;;18.88;62.40;102097.38;5052813;28;20458;-63
2021/09/07 02:53:42;;;;;;;0.93;0.55;;;;;;;18.83;59.52;102096.97;5052515;28;20461;-62
2021/09/07 02:56:07;;;;;;;2.55;0.77;;;;;;;18.82;58.50;102084.34;5054795;28;20037;-63
2021/09/07 02:58:33;;;;;;;4.80;1.40;;;;;;;18.83;61.46;102086.06;5038797;28;20063;-63
2021/09/07 03:00:58;;;;;;;1.50;0.80;;;;;;;18.81;61.27;102088.09;5056503;28;20420;-62
2021/09/07 03:03:24;;;;;;;4.15;0.85;;;;;;;18.85;59.20;102089.50;5056621;28;20036;-63
2021/09/07 03:05:49;;;;;;;3.42;1.50;;;;;;;18.80;57.86;102091.78;5056288;28;20017;-63
2021/09/07 03:08:14;;;;;;;4.20;1.45;;;;;;;18.84;58.00;102093.22;5056490;28;20032;-62
2021/09/07 03:10:40;;;;;;;1.02;0.75;;;;;;;18.82;59.84;102089.78;5056339;28;20071;-63
2021/09/07 03:13:05;;;;;;;2.83;0.70;;;;;;;18.79;59.31;102062.81;5056224;28;20108;-63
2021/09/07 03:15:30;;;;;;;2.00;0.80;;;;;;;18.80;57.24;102064.53;5056435;28;20032;-63
2021/09/07 03:17:56;;;;;;;1.23;0.50;;;;;;;18.80;54.95;102075.44;5056095;28;20381;-64
2021/09/07 03:20:21;;;;;;;2.80;0.70;;;;;;;18.79;59.20;102075.56;5056320;28;20356;-62
2021/09/07 03:22:46;;;;;;;0.70;0.55;;;;;;;18.78;59.00;102072.00;5056162;28;20028;-63
2021/09/07 03:25:12;;;;;;;2.00;0.80;;;;;;;18.76;60.42;102068.56;5055749;28;20027;-63
2021/09/07 03:27:37;;;;;;;3.58;0.80;;;;;;;18.77;61.09;102069.41;5056283;28;20123;-62
2021/09/07 03:30:03;;;;;;;2.58;0.68;;;;;;;18.74;58.52;102073.28;5055580;28;20028;-63
2021/09/07 03:32:29;;;;;;;3.20;0.82;;;;;;;18.75;60.36;102071.44;5056163;28;20021;-63
2021/09/07 03:34:55;;;;;;;1.27;0.70;;;;;;;18.75;60.05;102065.97;5055840;28;20043;-62
2021/09/07 03:37:20;;;;;;;3.15;0.52;;;;;;;18.72;58.24;102066.28;5056049;28;20029;-63
2021/09/07 03:39:45;;;;;;;0.68;0.55;;;;;;;18.76;60.63;102063.09;5055823;28;20027;-63
2021/09/07 03:42:10;;;;;;;2.38;0.50;;;;;;;18.72;57.84;102064.41;5055509;28;20021;-62
2021/09/07 03:44:36;;;;;;;0.75;0.38;;;;;;;18.72;59.30;102061.69;5055670;28;20672;-63
2021/09/07 03:47:01;;;;;;;1.65;0.47;;;;;;;18.75;60.48;102065.97;5055684;28;20517;-62
2021/09/07 03:49:26;;;;;;;0.90;0.50;;;;;;;18.75;60.88;102063.25;5055609;28;20025;-62
2021/09/07 03:51:52;;;;;;;2.53;0.75;;;;;;;18.72;60.07;102061.69;5055506;28;20068;-63
2021/09/07 03:54:17;;;;;;;0.75;0.30;;;;;;;18.71;57.31;102059.97;5055691;28;20384;-63
2021/09/07 03:56:43;;;;;;;2.75;0.80;;;;;;;18.74;58.11;102058.81;5055358;28;20413;-62
2021/09/07 03:59:08;;;;;;;1.20;0.35;;;;;;;18.71;59.61;102040.91;5055518;28;20029;-63
2021/09/07 04:01:33;;;;;;;3.25;0.95;;;;;;;18.71;56.70;102049.06;5055318;28;20025;-63
2021/09/07 04:04:00;;;;;;;4.30;1.58;;;;;;;18.87;57.10;102035.72;5055585;28;20057;-63
2021/09/07 04:06:25;;;;;;;0.93;0.28;;;;;;;19.02;56.81;102043.44;5037418;28;20025;-63
2021/09/07 04:08:50;;;;;;;0.38;0.30;;;;;;;19.14;57.73;102024.00;5055304;28;20027;-62
2021/09/07 04:11:16;;;;;;;1.92;0.50;;;;;;;19.20;55.67;102023.44;5055202;28;20355;-63
2021/09/07 04:13:41;;;;;;;0.65;0.28;;;;;;;19.30;56.13;102030.72;5055066;28;20037;-63
2021/09/07 04:16:06;;;;;;;0.70;0.30;;;;;;;19.40;58.16;102024.22;5055024;28;20485;-62
2021/09/07 04:18:32;;;;;;;0.65;0.30;;;;;;;19.47;54.35;102024.47;5055250;28;20423;-62
2021/09/07 04:20:57;;;;;;;1.20;0.50;;;;;;;19.56;54.96;102028.22;5055037;28;20443;-63
2021/09/07 04:23:22;;;;;;;1.52;0.57;;;;;;;19.58;54.66;102039.81;5037213;28;20031;-62
2021/09/07 04:25:51;;;;;;;0.63;0.35;;;;;;;19.63;57.11;102042.94;5055035;28;20031;-63
2021/09/07 04:28:16;;;;;;;3.50;0.63;;;;;;;19.66;57.04;102045.41;5068604;28;20020;-62
2021/09/07 04:30:41;;;;;;;0.68;0.22;;;;;;;19.69;55.95;102039.63;5070533;28;20032;-61
2021/09/07 04:33:07;;;;;;;0.63;0.20;;;;;;;19.73;53.84;102035.59;5054718;28;20363;-63
2021/09/07 04:35:32;;;;;;;2.15;0.68;;;;;;;19.75;57.27;102036.28;5054542;28;20470;-63
2021/09/07 04:37:58;;;;;;;1.30;0.40;;;;;;;19.82;55.79;102029.22;5054453;28;20203;-63
2021/09/07 04:40:23;;;;;;;1.20;0.30;;;;;;;19.86;53.47;102035.25;5054798;28;20039;-63
2021/09/07 04:42:49;;;;;;;2.78;0.73;;;;;;;19.79;58.84;102029.50;5054460;28;20037;-62
2021/09/07 04:45:14;;;;;;;0.25;0.17;;;;;;;19.87;55.68;102037.81;5054015;28;20045;-62
2021/09/07 04:47:39;;;;;;;0.40;0.10;;;;;;;19.92;57.82;102030.00;5054149;28;20049;-63
2021/09/07 04:50:05;;;;;;;0.82;0.30;;;;;;;19.95;53.50;102029.69;5054432;28;20021;-62
2021/09/07 04:52:31;;;;;;;0.85;0.20;;;;;;;19.98;56.45;102029.38;5054739;28;20031;-63
2021/09/07 04:54:56;;;;;;;0.65;0.25;;;;;;;19.99;58.71;102031.13;5054186;28;20425;-63
2021/09/07 04:57:21;;;;;;;0.75;0.28;;;;;;;19.98;56.89;102018.47;5036738;28;20029;-62
2021/09/07 04:59:47;;;;;;;2.20;0.20;;;;;;;19.98;58.03;102018.47;5054341;28;20027;-63
2021/09/07 05:02:12;;;;;;;1.00;0.25;;;;;;;20.04;58.97;102017.88;5054274;28;20017;-63
2021/09/07 05:04:37;;;;;;;0.45;0.20;;;;;;;20.05;53.22;102018.72;5054566;28;20059;-63
2021/09/07 05:07:03;;;;;;;4.03;0.40;;;;;;;20.05;56.17;102003.22;5054054;28;20458;-64
2021/09/07 05:09:28;;;;;;;1.48;0.50;;;;;;;20.08;55.49;102008.34;5054359;28;20028;-63
2021/09/07 05:11:54;;;;;;;0.40;0.20;;;;;;;20.12;52.50;102004.28;5053842;28;20029;-63
2021/09/07 05:14:19;;;;;;;2.42;0.20;;;;;;;20.14;56.42;102015.91;5036153;28;20017;-64
2021/09/07 05:16:44;;;;;;;1.67;0.22;;;;;;;20.18;58.44;102004.72;5036140;28;20021;-63
2021/09/07 05:19:10;;;;;;;0.32;0.30;;;;;;;20.12;55.73;102009.75;5053453;28;20029;-63
2021/09/07 05:21:36;;;;;;;0.77;0.30;;;;;;;20.18;55.80;102012.91;5054029;28;20031;-64
2021/09/07 05:24:01;;;;;;;2.45;0.93;;;;;;;20.17;58.24;102011.19;5053840;28;20025;-63
2021/09/07 05:26:26;;;;;;;2.10;0.60;;;;;;;20.18;53.09;102008.28;5053868;28;20561;-63
2021/09/07 05:28:52;;;;;;;1.08;0.40;;;;;;;20.26;57.37;101994.69;5053796;28;20029;-63
2021/09/07 05:31:18;;;;;;;0.85;0.30;;;;;;;20.25;59.68;101993.00;5053689;28;20475;-62
2021/09/07 05:33:43;;;;;;;0.28;0.13;;;;;;;20.24;58.16;101984.97;5035848;28;20025;-63
2021/09/07 05:36:09;;;;;;;0.55;0.15;;;;;;;20.27;59.78;101984.63;5053576;28;20029;-62
2021/09/07 05:38:34;;;;;;;0.47;0.10;;;;;;;20.30;52.17;101989.78;5053700;28;20032;-62
2021/09/07 05:40:59;;;;;;;0.95;0.20;;;;;;;20.30;57.88;101978.84;5053459;28;20009;-63
2021/09/07 05:43:24;;;;;;;1.48;0.30;;;;;;;20.28;59.55;101983.63;5053360;28;20359;-62
2021/09/07 05:45:50;;;;;;;0.63;0.25;;;;;;;20.31;59.65;101975.09;5053484;28;20082;-63
2021/09/07 05:48:15;;;;;;;0.45;0.20;;;;;;;20.31;58.93;101973.22;5053558;28;20425;-62
2021/09/07 05:50:40;;;;;;;1.25;0.28;;;;;;;20.35;59.12;101960.16;5053520;28;20049;-62
2021/09/07 05:53:06;;;;;;;1.35;0.30;;;;;;;20.37;59.36;101960.84;5053325;28;20025;-63
2021/09/07 05:55:31;;;;;;;1.95;0.30;;;;;;;20.36;59.02;101968.19;5053460;28;20027;-62
2021/09/07 05:57:57;;;;;;;1.30;0.25;;;;;;;20.36;57.44;101970.91;5052829;28;20025;-62
2021/09/07 06:00:22;;;;;;;1.13;0.38;;;;;;;20.39;58.74;101978.78;5053452;28;20021;-63
2021/09/07 06:02:51;;;;;;;3.13;0.43;;;;;;;20.42;58.22;101972.19;5053213;28;20032;-61
2021/09/07 06:05:17;;;;;;;0.75;0.20;;;;;;;20.39;57.94;101967.00;5052974;28;20032;-62
2021/09/07 06:07:42;;;;;;;1.55;0.30;;;;;;;20.39;58.41;101967.00;5050542;28;20386;-62
2021/09/07 06:10:09;;;;;;;1.98;0.40;;;;;;;20.39;58.01;101967.00;5035191;28;20036;-63
2021/09/07 06:12:34;;;;;;;0.77;0.20;;;;;;;20.44;56.84;101964.69;5036592;28;20041;-63
2021/09/07 06:15:00;;;;;;;0.93;0.40;;;;;;;20.47;60.51;101980.75;5040201;28;20037;-62
2021/09/07 06:17:26;;;;;;;1.05;0.20;;;;;;;20.46;60.36;101989.97;5049867;28;20024;-63
2021/09/07 06:19:51;;;;;;;2.53;0.57;;;;;;;20.46;57.93;101989.97;5052838;28;20025;-62
2021/09/07 06:22:16;;;;;;;0.68;0.10;;;;;;;20.49;57.57;102000.59;5052758;28;20032;-63
2021/09/07 06:24:42;;;;;;;0.47;0.20;;;;;;;20.51;59.82;102000.44;5043383;28;20040;-62
2021/09/07 06:27:07;;;;;;;0.65;0.10;;;;;;;20.56;58.32;102006.28;5046428;28;20466;-61
2021/09/07 06:29:32;;;;;;;0.45;0.30;;;;;;;20.55;56.88;101993.63;5049565;28;20033;-62
2021/09/07 06:31:58;;;;;;;0.75;0.20;;;;;;;20.53;57.24;102002.00;5047645;28;20033;-62
2021/09/07 06:34:26;;;;;;;0.47;0.08;;;;;;;20.56;58.50;102007.13;5055496;28;20122;-63
2021/09/07 06:36:54;;;;;;;0.57;0.13;;;;;;;20.54;56.31;101984.56;5075649;28;20060;-63
2021/09/07 06:39:20;;;;;;;0.30;0.10;;;;;;;20.59;54.61;101984.94;5044031;28;20061;-61
2021/09/07 06:41:46;;;;;;;0.22;0.20;;;;;;;20.67;54.80;101995.97;5050246;28;20060;-62
2021/09/07 06:44:11;;;;;;;1.25;0.50;;;;;;;20.60;59.58;101997.59;5042578;28;20049;-62
2021/09/07 06:46:36;;;;;;;0.60;0.20;;;;;;;20.59;55.69;102000.50;5042820;28;20025;-61
2021/09/07 06:49:02;;;;;;;1.85;0.25;;;;;;;20.65;56.50;102000.69;5034188;28;20025;-61
2021/09/07 06:51:27;;;;;;;0.30;0.20;;;;;;;20.74;59.35;101998.91;5049488;28;20028;-60
2021/09/07 06:53:52;;;;;;;1.85;0.20;;;;;;;20.67;59.93;101993.22;5050311;28;20677;-61
2021/09/07 06:56:18;;;;;;;3.13;0.52;;;;;;;20.72;53.80;101999.06;5046177;28;20462;-61
2021/09/07 06:58:43;;;;;;;0.80;0.32;;;;;;;20.58;61.09;101999.63;5050713;28;20025;-60
2021/09/07 07:01:08;;;;;;;2.45;0.57;;;;;;;20.44;55.44;102002.91;5039542;28;20033;-61
2021/09/07 07:03:34;;;;;;;2.22;0.40;;;;;;;20.48;61.02;101992.53;5045290;28;20059;-61
2021/09/07 07:06:00;;;;;;;2.42;0.75;;;;;;;20.38;55.81;101998.06;5037639;28;20440;-59
2021/09/07 07:08:25;;;;;;;1.27;0.60;;;;;;;20.37;60.07;101991.75;5039220;28;20022;-61
2021/09/07 07:10:50;;;;;;;0.57;0.20;;;;;;;20.44;54.56;101997.47;5044737;28;20489;-60
2021/09/07 07:13:16;;;;;;;1.42;0.57;;;;;;;20.35;58.06;101990.19;5035153;28;20033;-61
2021/09/07 07:15:41;;;;;;;0.95;0.22;;;;;;;20.40;57.08;101987.84;5046823;28;20035;-61
2021/09/07 07:18:07;;;;;;;0.50;0.30;;;;;;;20.35;58.38;101998.38;5034950;28;20022;-60
2021/09/07 07:20:32;;;;;;;0.75;0.25;;;;;;;20.36;54.79;101991.91;5043615;28;20025;-60
2021/09/07 07:22:58;;;;;;;1.45;0.30;;;;;;;20.35;59.69;101995.66;5035985;28;20036;-60
2021/09/07 07:25:24;;;;;;;0.82;0.20;;;;;;;20.37;60.39;101991.75;5043914;28;20024;-60
2021/09/07 07:27:49;;;;;;;3.85;0.75;;;;;;;20.33;54.23;101997.69;5042484;28;20408;-62
2021/09/07 07:30:15;;;;;;;1.50;0.38;;;;;;;20.38;60.38;101992.59;5043635;28;20523;-60
2021/09/07 07:32:40;;;;;;;2.20;0.40;;;;;;;20.32;57.74;101990.47;5035579;28;20041;-60
2021/09/07 07:35:06;;;;;;;1.55;0.47;;;;;;;20.36;61.20;101994.63;5040204;28;20029;-60
2021/09/07 07:37:32;;;;;;;0.65;0.25;;;;;;;20.35;58.70;101995.66;5038386;28;20074;-60
2021/09/07 07:39:58;;;;;;;0.43;0.13;;;;;;;20.37;60.76;101996.34;5041700;28;20108;-60
2021/09/07 07:42:23;;;;;;;0.38;0.20;;;;;;;20.34;56.79;102002.13;5049899;28;20374;-59
2021/09/07 07:44:49;;;;;;;1.77;0.20;;;;;;;20.37;61.69;101990.88;5049818;28;20043;-60
2021/09/07 07:47:14;;;;;;;1.15;0.40;;;;;;;20.37;55.47;101991.75;5040098;28;20509;-60
2021/09/07 07:49:40;;;;;;;1.48;0.20;;;;;;;20.37;56.16;101990.88;5043151;28;20145;-60
2021/09/07 07:52:05;;;;;;;0.47;0.10;;;;;;;20.35;61.59;101992.91;5042291;28;20493;-60
2021/09/07 07:54:31;;;;;;;1.00;0.28;;;;;;;20.33;58.13;101994.97;5046473;28;20091;-59
2021/09/07 07:56:56;;;;;;;0.60;0.50;;;;;;;20.37;55.16;101990.88;5045380;28;20037;-60
2021/09/07 07:59:21;;;;;;;0.82;0.30;;;;;;;20.35;59.89;101995.66;5052449;28;20025;-59
2021/09/07 08:01:47;;;;;;;0.15;0.10;;;;;;;20.38;55.83;101998.06;5056144;28;20021;-60
2021/09/07 08:04:12;;;;;;;2.17;0.63;;;;;;;20.38;57.27;101987.13;5041043;28;20034;-60
2021/09/07 08:06:39;;;;;;;0.20;0.20;;;;;;;20.39;58.86;102003.38;5048666;28;20068;-59
2021/09/07 08:09:06;;;;;;;0.52;0.20;;;;;;;20.38;58.00;101992.59;5035275;28;20022;-59
2021/09/07 08:11:31;;;;;;;1.10;0.35;;;;;;;20.40;57.46;101996.03;5035138;28;20437;-59
2021/09/07 08:13:56;;;;;;;0.45;0.30;;;;;;;20.37;54.91;101996.34;5035081;28;20025;-59
2021/09/07 08:16:22;;;;;;;1.85;0.30;;;;;;;20.36;60.26;101986.44;5035893;28;20033;-60
2021/09/07 08:18:47;;;;;;;1.02;0.40;;;;;;;20.39;59.82;101994.31;5036498;28;20032;-59
2021/09/07 08:21:13;;;;;;;0.85;0.30;;;;;;;20.38;56.78;101995.34;5044512;28;20029;-59
2021/09/07 08:23:39;;;;;;;0.00;0.00;;;;;;;20.39;58.82;101989.72;5054796;28;20021;-59
2021/09/07 08:26:04;;;;;;;0.82;0.30;;;;;;;20.40;58.72;101990.56;5045841;28;20029;-59
2021/09/07 08:28:29;;;;;;;1.25;0.38;;;;;;;20.36;55.26;101994.63;5054986;28;20025;-60
2021/09/07 08:30:55;;;;;;;0.65;0.13;;;;;;;20.39;61.17;101994.31;5051454;28;20463;-59
2021/09/07 08:33:20;;;;;;;1.98;0.28;;;;;;;20.39;54.91;101984.25;5036214;28;20044;-59
2021/09/07 08:35:46;;;;;;;0.17;0.10;;;;;;;20.43;60.18;101984.81;5040455;28;20025;-60
2021/09/07 08:38:12;;;;;;;0.10;0.10;;;;;;;20.40;57.01;101991.44;5035639;28;20053;-59
2021/09/07 08:40:39;;;;;;;0.73;0.20;;;;;;;20.38;61.77;101984.41;5039886;28;20013;-59
2021/09/07 08:43:05;;;;;;;0.73;0.20;;;;;;;20.42;59.19;101994.03;5067848;28;20020;-59
2021/09/07 08:45:31;;;;;;;0.73;0.20;;;;;;;20.41;60.93;101984.13;5068639;28;20080;-59
2021/09/07 08:47:58;;;;;;;1.40;0.20;;;;;;;20.37;55.45;101985.44;5037965;28;20115;-60
2021/09/07 08:50:24;;;;;;;1.35;0.22;;;;;;;20.38;56.96;101988.00;5050327;28;20382;-60
2021/09/07 08:52:54;;;;;;;1.00;0.30;;;;;;;20.40;52.93;101968.72;5029786;28;20044;-59
2021/09/07 08:55:19;;;;;;;1.00;0.30;;;;;;;20.42;60.73;101977.63;5034449;28;20386;-59
2021/09/07 08:57:45;;;;;;;0.65;0.43;;;;;;;20.37;53.54;101971.75;5055958;28;20042;-59
2021/09/07 09:00:10;;;;;;;0.82;0.25;;;;;;;20.44;60.31;101975.59;5056256;28;20037;-59
2021/09/07 09:02:43;;;;;;;0.30;0.30;;;;;;;20.38;59.62;101968.03;5036992;28;20017;-60
2021/09/07 09:05:09;;;;;;;1.23;0.50;;;;;;;20.39;59.88;101972.47;5054347;28;20056;-59
2021/09/07 09:07:34;;;;;;;2.33;0.30;;;;;;;20.39;59.73;101958.81;5054411;28;20029;-59
2021/09/07 09:10:00;;;;;;;1.65;0.15;;;;;;;20.38;58.36;101955.22;5054080;28;20020;-59
2021/09/07 09:12:39;;;;;;;0.15;0.10;;;;;;;20.40;55.23;101953.19;5051509;28;20037;-59
2021/09/07 09:15:11;;;;;;;0.40;0.20;;;;;;;20.38;55.97;101952.50;5053294;28;20033;-59
2021/09/07 09:17:36;;;;;;;0.45;0.30;;;;;;;20.39;61.16;101947.88;5053832;28;20020;-59
2021/09/07 09:20:04;;;;;;;0.20;0.10;;;;;;;20.44;56.37;101942.81;5053562;28;20039;-59
2021/09/07 09:22:41;;;;;;;2.55;0.55;;;;;;;20.46;61.09;101940.78;5040309;28;20033;-60
2021/09/07 09:25:22;;;;;;;2.85;0.45;;;;;;;20.40;56.32;101946.88;5072119;28;20491;-59
2021/09/07 09:27:48;;;;;;;1.38;0.22;;;;;;;20.44;61.73;101948.28;5065761;28;20017;-59
2021/09/07 09:30:14;;;;;;;2.50;0.55;;;;;;;20.41;57.52;101948.59;5053385;28;20032;-59
2021/09/07 09:32:50;;;;;;;1.40;0.32;;;;;;;20.46;56.85;101945.41;5053716;28;20024;-59
2021/09/07 09:35:16;;;;;;;1.63;0.32;;;;;;;20.39;60.53;101945.16;5053648;28;20112;-59
2021/09/07 09:38:04;;;;;;;0.60;0.30;;;;;;;20.41;58.66;101948.59;5053212;28;20462;-60
2021/09/07 09:40:30;;;;;;;2.30;0.30;;;;;;;20.48;58.75;101944.22;5053500;28;20434;-60
2021/09/07 09:43:21;;;;;;;1.13;0.28;;;;;;;20.52;57.68;101940.16;5053422;28;20493;-60
2021/09/07 09:45:46;;;;;;;0.85;0.38;;;;;;;20.57;55.87;101937.81;5053552;28;20047;-61
2021/09/07 09:48:29;;;;;;;1.17;0.13;;;;;;;20.63;59.82;101923.50;5053280;28;20021;-64
2021/09/07 09:50:57;;;;;;;0.40;0.28;;;;;;;20.53;62.36;101925.50;5053366;28;20467;-62
2021/09/07 09:53:23;;;;;;;1.42;0.40;;;;;;;20.49;59.49;101926.84;5053282;28;20064;-61
2021/09/07 09:55:50;;;;;;;0.50;0.32;;;;;;;20.50;62.56;101930.44;5052307;28;20023;-62
2021/09/07 09:58:18;;;;;;;0.57;0.20;;;;;;;20.48;58.60;101922.38;5047173;28;20032;-61
2021/09/07 10:00:45;;;;;;;0.57;0.10;;;;;;;20.46;59.89;101918.06;5039592;28;20024;-62
2021/09/07 10:03:10;;;;;;;1.05;0.47;;;;;;;20.45;58.30;101922.69;5048520;28;20152;-62
2021/09/07 10:05:36;;;;;;;0.30;0.20;;;;;;;20.48;60.24;101922.38;5055311;28;20513;-61
2021/09/07 10:08:03;;;;;;;2.67;0.52;;;;;;;20.48;61.09;101916.91;5052937;28;20646;-62
2021/09/07 10:10:28;;;;;;;1.63;0.40;;;;;;;20.47;61.14;101917.06;5053104;28;20068;-61
2021/09/07 10:12:58;;;;;;;0.85;0.45;;;;;;;20.47;57.61;101915.19;5053069;28;20048;-62
2021/09/07 10:15:37;;;;;;;1.45;0.28;;;;;;;20.47;60.42;101917.91;5053146;28;20023;-62
2021/09/07 10:18:38;;;;;;;0.40;0.10;;;;;;;20.48;59.84;101911.44;5054839;28;20075;-62
2021/09/07 10:23:59;;;;;;;1.52;0.50;;;;;;;20.54;57.54;101894.44;5062426;28;20071;-62
2021/09/07 10:26:37;;;;;;;0.10;0.05;;;;;;;20.53;61.65;101892.72;5061155;28;20037;-61
2021/09/07 10:29:05;;;;;;;0.30;0.10;;;;;;;20.52;58.25;101896.47;5052818;28;20025;-61
2021/09/07 10:31:43;;;;;;;0.75;0.30;;;;;;;20.48;58.98;101888.72;5052571;28;20021;-61
2021/09/07 10:34:08;;;;;;;0.50;0.20;;;;;;;20.54;58.83;101883.50;5034915;28;20095;-62
2021/09/07 10:36:58;;;;;;;1.10;0.22;;;;;;;20.48;55.95;101884.13;5052901;28;20656;-61
2021/09/07 10:39:33;;;;;;;0.40;0.30;;;;;;;20.49;59.43;101887.69;5052389;28;20020;-62
2021/09/07 10:42:02;;;;;;;0.60;0.10;;;;;;;20.48;61.91;101877.81;5034713;28;20025;-61
2021/09/07 10:44:32;;;;;;;1.40;0.52;;;;;;;20.54;59.08;101882.63;5052645;28;20048;-62
2021/09/07 10:46:57;;;;;;;0.70;0.20;;;;;;;20.59;55.33;101881.13;5052807;28;20032;-68
2021/09/07 10:49:26;;;;;;;1.67;0.40;;;;;;;20.53;61.58;101881.78;5052888;28;20025;-62
2021/09/07 10:52:36;;;;;;;1.15;0.40;;;;;;;20.61;59.48;101873.63;5072709;28;20051;-61
2021/09/07 10:55:06;;;;;;;0.30;0.30;;;;;;;20.53;61.42;101879.06;5053963;28;20029;-60
2021/09/07 10:57:32;;;;;;;1.10;0.30;;;;;;;20.49;56.28;101874.94;5045199;28;20052;-61
2021/09/07 11:00:10;;;;;;;1.52;0.50;;;;;;;20.49;59.25;101865.84;5066829;28;20060;-61
2021/09/07 11:02:43;;;;;;;0.30;0.20;;;;;;;20.49;59.57;101869.47;5070723;28;20028;-61
2021/09/07 11:05:09;;;;;;;0.20;0.10;;;;;;;20.50;57.15;101864.88;5072028;28;20032;-62
2021/09/07 11:07:38;;;;;;;1.05;0.35;;;;;;;20.47;59.35;101871.47;5072066;28;20021;-60
2021/09/07 11:10:04;;;;;;;0.70;0.20;;;;;;;20.51;59.92;101872.03;5071827;28;20063;-62
2021/09/07 11:12:33;;;;;;;1.90;0.30;;;;;;;20.51;61.92;101872.03;5072015;28;20028;-60
2021/09/07 11:15:04;;;;;;;0.95;0.20;;;;;;;20.51;59.72;101880.22;5067299;28;20064;-62
2021/09/07 11:17:29;;;;;;;1.50;0.40;;;;;;;20.48;57.83;101878.66;5034475;28;20064;-61
2021/09/07 11:20:12;;;;;;;1.90;0.43;;;;;;;20.48;60.58;101878.66;5036010;28;20405;-60
2021/09/07 11:22:38;;;;;;;0.40;0.20;;;;;;;20.50;61.36;101882.13;5044481;28;20025;-61
2021/09/07 11:25:08;;;;;;;1.23;0.10;;;;;;;20.59;60.41;101874.81;5056053;28;20067;-61